Time;durP1;ratioP1;P1;durP2;ratioP2;P2;SDS_P1;SDS_P2;PMS_P1;PMS_P2;Temp;Humidity;BMP_temperature;BMP_pressure;BME280_temperature;BME280_humidity;BME280_pressure;Samples;Min_cycle;Max_cycle;Signal;HPM_P1;HPM_P2
2022/04/01 00:00:46;;;;;;;16.10;8.63;;;;;;;1.01;76.66;99431.22;5053330;28;20460;-78
2022/04/01 00:03:13;;;;;;;18.95;9.52;;;;;;;1.09;76.47;99438.31;5053779;28;20053;-76
2022/04/01 00:05:40;;;;;;;17.90;9.63;;;;;;;1.00;76.43;99414.03;5037024;28;20061;-78
2022/04/01 00:08:08;;;;;;;17.27;10.13;;;;;;;0.77;76.60;99368.63;5053535;28;20063;-75
2022/04/01 00:10:36;;;;;;;18.83;10.23;;;;;;;1.07;76.31;99437.38;5054179;28;20107;-76
2022/04/01 00:13:04;;;;;;;17.35;9.88;;;;;;;1.08;76.25;99426.28;5035997;28;20061;-76
2022/04/01 00:15:31;;;;;;;17.80;9.60;;;;;;;0.97;76.33;99408.78;5053394;28;20079;-76
2022/04/01 00:18:00;;;;;;;16.98;8.90;;;;;;;1.11;76.89;99431.53;5052521;28;20053;-75
2022/04/01 00:20:27;;;;;;;17.33;9.60;;;;;;;1.11;76.51;99436.66;5053162;28;20084;-79
2022/04/01 00:22:55;;;;;;;23.45;9.75;;;;;;;1.03;76.58;99428.69;5053081;28;20057;-75
2022/04/01 00:25:23;;;;;;;17.17;9.55;;;;;;;0.86;76.73;99396.38;5034967;28;20602;-77
2022/04/01 00:27:50;;;;;;;17.58;10.38;;;;;;;0.85;76.75;99380.06;5052669;28;20049;-76
2022/04/01 00:30:18;;;;;;;20.73;10.32;;;;;;;1.15;76.58;99430.81;5035126;28;20056;-78
2022/04/01 00:32:44;;;;;;;20.33;10.30;;;;;;;1.15;76.62;99418.81;5052565;28;20056;-76
2022/04/01 00:35:12;;;;;;;18.02;9.23;;;;;;;1.21;76.47;99439.63;5052802;28;20061;-77
2022/04/01 00:37:40;;;;;;;19.40;9.95;;;;;;;1.18;76.47;99438.63;5035062;28;20515;-77
2022/04/01 00:40:10;;;;;;;17.77;9.25;;;;;;;1.12;76.93;99428.13;5035479;28;20100;-76
2022/04/01 00:42:37;;;;;;;18.65;8.35;;;;;;;1.05;77.01;99432.19;5034890;28;20048;-76
2022/04/01 00:45:05;;;;;;;18.25;8.88;;;;;;;0.98;76.92;99435.38;5052614;28;20049;-75
2022/04/01 00:47:31;;;;;;;19.67;8.75;;;;;;;0.96;76.95;99443.03;5052684;28;20060;-76
2022/04/01 00:49:58;;;;;;;19.98;9.10;;;;;;;0.77;77.58;99426.06;5034747;28;20510;-77
2022/04/01 00:52:27;;;;;;;21.77;10.55;;;;;;;0.82;77.46;99442.56;5052529;28;20063;-75
2022/04/01 00:54:54;;;;;;;19.90;9.25;;;;;;;0.85;77.51;99433.19;5034623;28;20080;-77
2022/04/01 00:57:25;;;;;;;19.88;10.07;;;;;;;0.89;77.75;99438.50;5035028;28;20505;-77
2022/04/01 00:59:54;;;;;;;;;;;;;;;0.84;77.08;99431.44;5035359;28;20056;-75
2022/04/01 01:02:25;;;;;;;19.70;9.30;;;;;;;0.81;77.23;99429.63;5052594;28;19925;-77
2022/04/01 01:04:52;;;;;;;19.92;8.77;;;;;;;0.81;77.46;99430.50;5052482;28;20053;-77
2022/04/01 01:07:19;;;;;;;19.98;9.48;;;;;;;0.78;77.49;99438.13;5035009;28;20110;-76
2022/04/01 01:09:49;;;;;;;20.23;8.68;;;;;;;0.77;77.91;99427.78;5052517;28;20052;-77
2022/04/01 01:12:17;;;;;;;22.05;9.82;;;;;;;0.78;78.09;99430.41;5052974;28;20085;-76
2022/04/01 01:14:44;;;;;;;19.52;9.35;;;;;;;0.55;77.63;99400.44;5036411;28;20082;-77
2022/04/01 01:17:13;;;;;;;17.88;8.88;;;;;;;0.77;77.83;99449.22;5036824;28;20052;-77
2022/04/01 01:19:42;;;;;;;18.83;9.60;;;;;;;0.72;77.91;99442.16;5062981;28;20041;-77
2022/04/01 01:22:12;;;;;;;21.05;11.35;;;;;;;0.82;78.04;99447.69;5059230;28;20063;-77
2022/04/01 01:24:41;;;;;;;22.90;11.05;;;;;;;0.89;77.93;99441.06;5064759;28;20064;-76
2022/04/01 01:27:10;;;;;;;24.88;11.40;;;;;;;0.89;77.99;99445.34;5052883;28;20099;-77
2022/04/01 01:29:39;;;;;;;22.13;10.55;;;;;;;0.91;77.63;99447.16;5034546;28;20076;-78
2022/04/01 01:32:11;;;;;;;22.15;10.75;;;;;;;0.91;78.00;99444.56;5052346;28;20087;-77
2022/04/01 01:34:40;;;;;;;24.60;11.43;;;;;;;0.89;78.17;99459.06;5052775;28;20139;-77
2022/04/01 01:37:11;;;;;;;24.25;10.68;;;;;;;0.86;78.18;99448.69;5034541;28;20182;-78
2022/04/01 01:39:39;;;;;;;24.15;10.70;;;;;;;0.75;78.03;99438.03;5052315;28;20059;-78
2022/04/01 01:42:07;;;;;;;25.80;10.70;;;;;;;0.89;78.08;99469.38;5034650;28;20056;-78
2022/04/01 01:44:35;;;;;;;23.67;11.48;;;;;;;0.84;77.54;99452.00;5051810;28;20418;-77
2022/04/01 01:47:03;;;;;;;25.42;11.20;;;;;;;0.63;77.92;99413.56;5034329;28;20494;-78
2022/04/01 01:49:31;;;;;;;26.63;11.82;;;;;;;0.89;78.13;99465.91;5034467;28;20049;-78
2022/04/01 01:54:49;;;;;;;25.13;11.00;;;;;;;1.01;77.50;99472.38;5034442;28;20106;-79
2022/04/01 01:57:23;;;;;;;26.88;12.48;;;;;;;0.85;77.70;99448.63;5052593;28;20056;-77
2022/04/01 01:59:53;;;;;;;25.33;10.88;;;;;;;0.90;77.57;99467.66;5034336;28;20061;-77
2022/04/01 02:02:20;;;;;;;26.13;13.38;;;;;;;0.76;78.13;99454.31;5022291;28;20060;-78
2022/04/01 02:04:48;;;;;;;25.35;11.32;;;;;;;0.83;77.96;99458.84;5042005;28;20053;-75
2022/04/01 02:07:16;;;;;;;25.70;11.00;;;;;;;0.90;77.84;99468.53;5038158;28;20538;-77
2022/04/01 02:09:46;;;;;;;27.63;12.38;;;;;;;0.91;77.98;99470.28;5038585;28;20075;-76
2022/04/01 02:12:16;;;;;;;26.30;11.60;;;;;;;0.87;78.05;99471.00;5055186;28;20049;-76
2022/04/01 02:14:44;;;;;;;28.23;11.82;;;;;;;0.82;77.98;99467.41;5038281;28;20107;-77
2022/04/01 02:17:11;;;;;;;26.50;12.77;;;;;;;0.85;78.20;99469.19;5037761;28;20061;-77
2022/04/01 02:19:38;;;;;;;26.38;12.75;;;;;;;0.91;77.91;99451.44;5037483;28;20118;-78
2022/04/01 02:22:07;;;;;;;26.55;11.63;;;;;;;0.71;77.84;99425.88;5037247;28;20081;-78
2022/04/01 02:24:37;;;;;;;26.70;12.18;;;;;;;0.93;78.05;99481.50;5037362;28;20060;-76
2022/04/01 02:27:05;;;;;;;29.42;12.45;;;;;;;0.98;77.89;99477.41;5037151;28;20502;-77
2022/04/01 02:29:32;;;;;;;33.63;13.02;;;;;;;0.86;77.96;99474.41;5037764;28;20048;-78
2022/04/01 02:32:17;;;;;;;25.85;9.98;;;;;;;0.81;78.02;99486.22;5055404;28;20049;-76
2022/04/01 02:34:44;;;;;;;27.52;12.05;;;;;;;0.80;78.02;99479.31;5054831;28;20552;-77
2022/04/01 02:37:11;;;;;;;25.83;11.68;;;;;;;0.75;78.42;99503.97;5055295;28;20060;-76
2022/04/01 02:39:38;;;;;;;28.08;12.95;;;;;;;0.57;78.58;99474.19;5037156;28;20068;-77
2022/04/01 02:42:06;;;;;;;24.77;11.43;;;;;;;0.40;78.33;99416.16;5037064;28;20143;-76
2022/04/01 02:44:33;;;;;;;25.23;10.95;;;;;;;0.69;78.71;99489.22;5037157;28;20087;-76
2022/04/01 02:47:00;;;;;;;26.70;12.60;;;;;;;0.39;78.82;99438.44;5020323;28;20064;-75
2022/04/01 02:49:27;;;;;;;24.80;12.02;;;;;;;0.60;78.96;99484.63;5036827;28;20083;-77
2022/04/01 02:51:57;;;;;;;25.25;11.55;;;;;;;0.33;78.76;99445.03;5036835;28;20074;-77
2022/04/01 02:54:24;;;;;;;28.58;12.57;;;;;;;0.60;78.92;99502.63;5036787;28;20053;-77
2022/04/01 02:56:54;;;;;;;28.33;12.52;;;;;;;0.39;78.52;99447.84;5036750;28;20057;-78
2022/04/01 02:59:21;;;;;;;27.67;12.25;;;;;;;0.63;78.85;99513.81;5054864;28;20061;-76
2022/04/01 03:01:48;;;;;;;26.98;12.30;;;;;;;0.55;79.07;99510.97;5036555;28;20078;-77
2022/04/01 03:04:15;;;;;;;28.75;12.30;;;;;;;0.58;79.01;99509.38;5035835;28;20083;-77
2022/04/01 03:06:51;;;;;;;28.38;12.43;;;;;;;0.57;79.05;99511.91;5036487;28;20052;-75
2022/04/01 03:09:19;;;;;;;24.15;11.68;;;;;;;0.59;78.47;99518.84;5054143;28;20144;-76
2022/04/01 03:11:58;;;;;;;27.60;12.52;;;;;;;0.49;78.94;99500.44;5036358;28;20059;-75
2022/04/01 03:14:48;;;;;;;28.45;12.70;;;;;;;0.56;79.18;99525.53;5044487;28;20049;-76
2022/04/01 03:17:31;;;;;;;20.95;9.60;;;;;;;0.60;78.88;99528.31;5054194;28;20061;-76
2022/04/01 03:20:01;;;;;;;24.30;10.20;;;;;;;0.55;79.03;99527.25;5036341;28;20049;-76
2022/04/01 03:22:30;;;;;;;24.58;9.82;;;;;;;0.29;79.25;99491.97;5036587;28;20065;-77
2022/04/01 03:24:57;;;;;;;22.92;10.18;;;;;;;0.49;78.81;99533.84;5036602;28;20056;-76
2022/04/01 03:27:29;;;;;;;22.35;10.23;;;;;;;0.39;79.15;99517.22;5035470;28;20107;-76
2022/04/01 03:29:56;;;;;;;23.73;10.40;;;;;;;0.17;79.41;99472.72;5054067;28;20162;-76
2022/04/01 03:32:22;;;;;;;25.08;11.95;;;;;;;0.44;79.28;99535.38;5054051;28;20053;-77
2022/04/01 03:34:50;;;;;;;25.98;11.65;;;;;;;0.44;79.19;99537.94;5035183;28;20072;-75
2022/04/01 03:37:17;;;;;;;24.30;10.60;;;;;;;0.47;79.05;99527.78;5035866;28;20087;-77
2022/04/01 03:39:45;;;;;;;23.65;10.65;;;;;;;0.19;79.64;99475.31;5041763;28;20073;-78
2022/04/01 03:42:14;;;;;;;29.00;11.85;;;;;;;0.49;79.00;99523.56;5029111;28;20514;-78
2022/04/01 03:44:41;;;;;;;23.38;10.07;;;;;;;0.46;79.38;99557.75;5010380;28;20519;-76
2022/04/01 03:47:48;;;;;;;27.38;11.63;;;;;;;-0.24;79.24;99454.00;5035563;28;20063;-76
2022/04/01 03:50:17;;;;;;;22.23;10.43;;;;;;;0.43;79.38;99531.03;5030885;28;20049;-76
2022/04/01 03:52:47;;;;;;;20.90;9.45;;;;;;;0.40;79.10;99532.69;5069088;28;20033;-75
2022/04/01 03:55:15;;;;;;;27.90;11.57;;;;;;;0.11;79.36;99499.88;5037046;28;20103;-77
2022/04/01 03:58:08;;;;;;;19.42;8.65;;;;;;;0.32;79.55;99539.25;5026986;28;20136;-75
2022/04/01 04:01:01;;;;;;;22.67;10.02;;;;;;;0.33;79.50;99525.56;5041640;28;20132;-79
2022/04/01 04:03:31;;;;;;;20.92;10.35;;;;;;;0.48;79.46;99529.53;5028425;28;20049;-78
2022/04/01 04:05:58;;;;;;;23.48;11.07;;;;;;;0.48;79.11;99532.97;5028812;28;20139;-78
2022/04/01 04:08:26;;;;;;;22.33;10.90;;;;;;;0.55;79.41;99532.38;5019155;28;20065;-77
2022/04/01 04:10:54;;;;;;;21.48;10.00;;;;;;;0.55;79.03;99527.25;5015449;28;20128;-78
2022/04/01 04:13:25;;;;;;;22.30;10.02;;;;;;;0.48;78.80;99514.13;5027235;28;20045;-76
2022/04/01 04:16:24;;;;;;;21.60;8.95;;;;;;;0.56;79.08;99523.88;5039864;28;20139;-79
2022/04/01 04:19:17;;;;;;;19.55;9.32;;;;;;;0.31;79.00;99493.78;5035150;28;20590;-80
2022/04/01 04:22:11;;;;;;;22.55;10.77;;;;;;;0.40;79.10;99495.81;5028120;28;20152;-81
2022/04/01 04:24:56;;;;;;;18.05;8.90;;;;;;;0.64;79.02;99542.16;5048989;28;20056;-78
2022/04/01 04:27:29;;;;;;;17.35;8.27;;;;;;;0.47;78.80;99523.50;5033440;28;20049;-77
2022/04/01 04:30:08;;;;;;;;;;;;;;;0.39;78.81;99530.94;5034234;28;20399;-79
2022/04/01 04:32:56;;;;;;;15.07;7.43;;;;;;;0.37;78.97;99516.28;5035352;28;19931;-79
2022/04/01 04:35:28;;;;;;;18.80;8.73;;;;;;;0.20;79.02;99488.25;5035740;28;20056;-78
2022/04/01 04:37:58;;;;;;;15.05;7.60;;;;;;;0.37;79.11;99519.72;5035350;28;20049;-77
2022/04/01 04:40:25;;;;;;;14.85;8.38;;;;;;;0.49;78.92;99547.56;5035609;28;20048;-79
2022/04/01 04:43:10;;;;;;;17.27;7.70;;;;;;;0.49;78.72;99551.84;5034956;28;20060;-78
2022/04/01 04:45:38;;;;;;;12.93;7.60;;;;;;;0.45;78.69;99540.56;5035245;28;20056;-77
2022/04/01 04:48:06;;;;;;;14.65;6.80;;;;;;;0.55;78.80;99552.94;5035019;28;20056;-77
2022/04/01 04:50:36;;;;;;;15.30;7.57;;;;;;;0.48;78.42;99539.81;5034881;28;20092;-81
2022/04/01 04:53:06;;;;;;;13.52;7.38;;;;;;;0.52;78.32;99551.97;5033526;28;20510;-77
2022/04/01 04:55:34;;;;;;;17.98;8.73;;;;;;;0.59;78.38;99561.66;5031589;28;20430;-78
2022/04/01 04:58:07;;;;;;;14.27;7.20;;;;;;;0.59;78.08;99557.41;5015097;28;20060;-77
2022/04/01 05:00:37;;;;;;;17.55;8.57;;;;;;;0.58;78.17;99567.59;5014848;28;20121;-75
2022/04/01 05:03:40;;;;;;;13.43;7.25;;;;;;;0.59;78.36;99564.25;5048389;28;20053;-76
2022/04/01 05:06:14;;;;;;;11.73;6.28;;;;;;;0.28;77.98;99519.38;5032580;28;20932;-78
2022/04/01 05:09:05;;;;;;;;;;;;;;;0.48;78.31;99566.41;5018486;28;20056;-76
2022/04/01 05:12:04;;;;;;;13.32;6.35;;;;;;;0.52;78.23;99575.97;5015385;28;19964;-76
2022/04/01 05:14:58;;;;;;;13.35;7.05;;;;;;;0.59;77.98;99569.38;5032520;28;20105;-78
2022/04/01 05:17:36;;;;;;;14.52;7.30;;;;;;;0.68;77.71;99561.13;5014614;28;20446;-78
2022/04/01 05:20:15;;;;;;;13.75;7.43;;;;;;;0.81;77.91;99565.91;5001622;28;20054;-77
2022/04/01 05:23:11;;;;;;;12.90;6.30;;;;;;;0.82;77.11;99577.97;5020794;28;20061;-79
2022/04/01 05:26:00;;;;;;;12.82;6.38;;;;;;;0.74;76.63;99581.94;5029378;28;20148;-77
2022/04/01 05:28:53;;;;;;;11.38;6.50;;;;;;;0.89;76.92;99587.66;5052061;28;20049;-78
2022/04/01 05:31:44;;;;;;;10.65;6.28;;;;;;;0.91;76.57;99593.75;5034604;28;20136;-75
2022/04/01 05:34:31;;;;;;;12.13;6.63;;;;;;;0.97;76.37;99578.53;5052254;28;20045;-76
2022/04/01 05:36:59;;;;;;;11.07;6.50;;;;;;;0.91;76.62;99569.72;5034369;28;20059;-75
2022/04/01 05:39:30;;;;;;;11.40;6.50;;;;;;;1.03;76.09;99572.72;5036503;28;20414;-80
2022/04/01 05:42:06;;;;;;;9.88;5.63;;;;;;;1.03;75.91;99577.88;5038244;28;20053;-77
2022/04/01 05:45:01;;;;;;;7.75;5.10;;;;;;;1.07;75.68;99573.72;5036086;28;20526;-76
2022/04/01 05:47:33;;;;;;;11.57;5.80;;;;;;;1.19;75.75;99595.63;5038468;28;20417;-76
2022/04/01 05:50:02;;;;;;;9.65;5.65;;;;;;;1.19;75.36;99580.19;5038536;28;20136;-77
2022/04/01 05:52:34;;;;;;;11.15;6.10;;;;;;;1.08;75.57;99560.94;5020663;28;20049;-78
2022/04/01 05:55:01;;;;;;;9.43;5.80;;;;;;;1.23;75.34;99563.19;5037703;28;20503;-79
2022/04/01 05:57:29;;;;;;;8.90;5.93;;;;;;;1.28;75.24;99540.19;5039798;28;20057;-77
2022/04/01 05:59:56;;;;;;;11.35;6.15;;;;;;;1.24;74.33;99505.75;5046904;28;20055;-79
2022/04/01 06:02:47;;;;;;;7.70;5.25;;;;;;;1.54;73.69;99562.56;5022340;28;20059;-81
2022/04/01 06:05:27;;;;;;;7.28;5.20;;;;;;;1.43;74.31;99579.31;5037993;28;20053;-79
2022/04/01 06:08:13;;;;;;;10.55;5.97;;;;;;;1.39;74.28;99573.19;5040706;28;20049;-77
2022/04/01 06:11:02;;;;;;;10.38;5.50;;;;;;;1.12;74.46;99551.59;5040929;28;20049;-80
2022/04/01 06:13:29;;;;;;;10.27;5.97;;;;;;;1.28;74.22;99581.34;5055991;28;20064;-78
2022/04/01 06:16:35;;;;;;;10.90;6.05;;;;;;;1.24;74.58;99567.50;5036866;28;20399;-78
2022/04/01 06:19:29;;;;;;;10.57;5.60;;;;;;;1.38;74.01;99584.31;5056175;28;20060;-77
2022/04/01 06:22:15;;;;;;;8.93;5.53;;;;;;;1.33;73.58;99566.94;5042545;28;20053;-82
2022/04/01 06:25:30;;;;;;;9.98;5.38;;;;;;;1.26;73.85;99568.44;5076539;28;20055;-79
2022/04/01 06:28:15;;;;;;;9.95;5.97;;;;;;;1.45;73.09;99564.81;5079642;28;20049;-80
2022/04/01 06:30:44;;;;;;;8.80;5.55;;;;;;;1.53;72.79;99571.13;5038731;28;20071;-78
2022/04/01 06:33:14;;;;;;;10.93;5.75;;;;;;;1.60;72.98;99565.34;5055173;28;20139;-80
2022/04/01 06:36:06;;;;;;;10.75;5.95;;;;;;;2.03;72.31;99574.50;5037050;28;20064;-78
2022/04/01 06:39:01;;;;;;;11.43;5.93;;;;;;;2.16;71.21;99562.91;5053889;28;20056;-78
2022/04/01 06:41:54;;;;;;;14.45;6.45;;;;;;;2.23;71.32;99567.41;5032825;28;20096;-77
2022/04/01 06:44:40;;;;;;;8.27;5.15;;;;;;;2.58;69.75;99564.19;5034910;28;20056;-78
2022/04/01 06:47:34;;;;;;;9.93;5.57;;;;;;;2.73;69.66;99577.59;5034133;28;20049;-78
2022/04/01 06:50:01;;;;;;;10.93;6.00;;;;;;;2.68;69.02;99532.69;5016863;28;20049;-76
2022/04/01 06:52:47;;;;;;;6.85;4.80;;;;;;;2.94;68.66;99564.41;5020168;28;20057;-78
2022/04/01 06:55:39;;;;;;;8.48;5.00;;;;;;;2.92;67.55;99580.69;5034516;28;20084;-77
2022/04/01 06:58:26;;;;;;;8.25;3.90;;;;;;;2.75;68.12;99559.53;5034556;28;20059;-78
2022/04/01 07:01:02;;;;;;;8.07;4.38;;;;;;;2.73;67.52;99556.03;5034541;28;20053;-77
2022/04/01 07:03:33;;;;;;;7.10;4.68;;;;;;;2.84;67.20;99557.25;5034109;28;20133;-77
2022/04/01 07:06:02;;;;;;;6.95;4.35;;;;;;;2.84;66.59;99511.69;5034234;28;20124;-77
2022/04/01 07:08:29;;;;;;;10.15;5.13;;;;;;;3.23;65.92;99552.34;5034440;28;20073;-78
2022/04/01 07:10:57;;;;;;;7.32;4.60;;;;;;;3.26;65.74;99567.91;5034627;28;20045;-78
2022/04/01 07:13:50;;;;;;;4.32;3.50;;;;;;;2.94;65.86;99548.06;5016358;28;20435;-78
2022/04/01 07:16:17;;;;;;;8.48;4.10;;;;;;;2.90;65.94;99560.00;5034137;28;20060;-77
2022/04/01 07:18:44;;;;;;;8.75;4.97;;;;;;;2.68;65.74;99527.53;5034318;28;20053;-79
2022/04/01 07:21:12;;;;;;;8.32;5.03;;;;;;;2.99;65.63;99543.91;5033874;28;20416;-77
2022/04/01 07:23:39;;;;;;;9.50;5.35;;;;;;;3.25;64.97;99513.69;5016443;28;20065;-78
2022/04/01 07:26:06;;;;;;;8.93;5.55;;;;;;;3.77;63.45;99522.78;5016247;28;20057;-78
2022/04/01 07:28:33;;;;;;;10.35;4.95;;;;;;;4.14;62.80;99548.66;5016820;28;20061;-78
2022/04/01 07:34:21;;;;;;;6.28;4.57;;;;;;;4.25;61.42;99547.19;5034000;28;20495;-78
2022/04/01 07:36:48;;;;;;;7.90;4.75;;;;;;;3.87;61.30;99478.25;5034020;28;20503;-79
2022/04/01 07:39:19;;;;;;;6.82;4.72;;;;;;;3.23;61.68;99412.97;5034471;28;20080;-77
2022/04/01 07:41:46;;;;;;;8.02;4.68;;;;;;;3.82;62.55;99528.94;5033764;28;20087;-78
2022/04/01 07:44:14;;;;;;;6.80;4.20;;;;;;;4.13;61.28;99526.22;5033609;28;20431;-79
2022/04/01 07:46:41;;;;;;;7.18;4.60;;;;;;;4.27;61.38;99543.81;5033440;28;20053;-77
2022/04/01 07:49:14;;;;;;;6.90;4.35;;;;;;;4.20;60.70;99517.78;5033930;28;20057;-77
2022/04/01 07:52:01;;;;;;;7.55;4.45;;;;;;;4.33;60.81;99535.31;5033180;28;20511;-78
2022/04/01 07:54:28;;;;;;;7.18;4.35;;;;;;;4.36;60.00;99506.94;4999960;28;20049;-78
2022/04/01 07:56:55;;;;;;;5.10;3.88;;;;;;;4.73;59.55;99528.44;5037593;28;20049;-77
2022/04/01 07:59:24;;;;;;;4.95;3.45;;;;;;;4.70;59.17;99537.00;5036838;28;20061;-81
2022/04/01 08:01:51;;;;;;;5.05;3.33;;;;;;;4.54;58.46;99472.88;5033391;28;20084;-79
2022/04/01 08:04:18;;;;;;;4.88;3.35;;;;;;;4.76;58.47;99510.41;5016392;28;20077;-79
2022/04/01 08:06:45;;;;;;;5.05;3.70;;;;;;;4.84;57.51;99529.56;5033629;28;20089;-79
2022/04/01 08:09:13;;;;;;;4.97;3.28;;;;;;;4.86;57.18;99540.81;5015539;28;20561;-78
2022/04/01 08:11:40;;;;;;;5.88;3.58;;;;;;;5.08;57.78;99542.13;5033226;28;20499;-77
2022/04/01 08:14:07;;;;;;;3.75;3.20;;;;;;;5.34;56.82;99540.06;5015540;28;20427;-76
2022/04/01 08:16:34;;;;;;;4.28;3.22;;;;;;;5.58;56.18;99554.31;5033313;28;20050;-78
2022/04/01 08:19:03;;;;;;;5.65;3.53;;;;;;;5.50;55.55;99537.75;5034260;28;20053;-78
2022/04/01 08:21:33;;;;;;;4.35;3.38;;;;;;;5.65;55.38;99513.84;5033199;28;20507;-77
2022/04/01 08:24:00;;;;;;;4.63;3.75;;;;;;;5.80;54.76;99489.91;5032981;28;20147;-78
2022/04/01 08:26:28;;;;;;;4.70;2.90;;;;;;;5.82;54.17;99543.50;5033290;28;20042;-79
2022/04/01 08:28:55;;;;;;;4.40;3.03;;;;;;;5.33;54.17;99521.88;5033782;28;20580;-78
2022/04/01 08:31:24;;;;;;;6.15;3.70;;;;;;;4.95;55.01;99493.56;5033381;28;20045;-79
2022/04/01 08:33:54;;;;;;;5.05;3.08;;;;;;;5.20;54.94;99551.84;5015546;28;20053;-78
2022/04/01 08:36:21;;;;;;;5.22;3.30;;;;;;;5.34;54.97;99541.78;5014814;28;20053;-79
2022/04/01 08:38:48;;;;;;;5.22;3.45;;;;;;;5.31;54.11;99526.16;5033635;28;20467;-78
2022/04/01 08:41:18;;;;;;;4.07;3.17;;;;;;;5.38;54.72;99534.91;5033629;28;20057;-78
2022/04/01 08:43:48;;;;;;;5.03;3.40;;;;;;;5.34;54.54;99539.19;5033602;28;20144;-79
2022/04/01 08:46:18;;;;;;;4.70;3.97;;;;;;;5.52;53.63;99539.53;5032847;28;20053;-77
2022/04/01 08:48:46;;;;;;;3.95;2.95;;;;;;;5.51;53.73;99549.88;5033421;28;20514;-78
2022/04/01 08:51:13;;;;;;;5.90;3.40;;;;;;;5.58;53.58;99536.19;5033508;28;20042;-78
2022/04/01 08:53:44;;;;;;;5.30;2.90;;;;;;;5.82;52.56;99529.69;5034926;28;20569;-79
2022/04/01 08:56:12;;;;;;;4.57;3.08;;;;;;;5.88;52.15;99554.00;5039474;28;20049;-79
2022/04/01 08:58:40;;;;;;;3.88;2.92;;;;;;;5.57;51.80;99533.53;5073472;28;20131;-79
2022/04/01 09:01:11;;;;;;;2.47;2.28;;;;;;;5.33;52.56;99561.63;5079826;28;20094;-78
2022/04/01 09:03:38;;;;;;;3.58;2.92;;;;;;;5.06;52.67;99519.66;5073068;28;20407;-80
2022/04/01 09:06:06;;;;;;;5.00;3.10;;;;;;;5.44;52.80;99548.88;5055467;28;20557;-79
2022/04/01 09:08:37;;;;;;;4.93;3.10;;;;;;;5.34;52.37;99503.78;5072890;28;20060;-78
2022/04/01 09:11:12;;;;;;;3.88;3.10;;;;;;;5.62;52.20;99539.72;5055003;28;20213;-78
2022/04/01 09:13:45;;;;;;;4.72;3.08;;;;;;;5.52;52.22;99555.06;5075445;28;20052;-80
2022/04/01 09:16:23;;;;;;;4.35;2.65;;;;;;;5.09;52.33;99548.19;5076947;28;20140;-80
2022/04/01 09:18:52;;;;;;;3.55;3.00;;;;;;;4.97;52.86;99546.22;5076801;28;20143;-79
2022/04/01 09:21:25;;;;;;;5.20;3.22;;;;;;;5.06;53.14;99540.38;5058731;28;20511;-80
2022/04/01 09:23:52;;;;;;;6.38;3.28;;;;;;;5.03;52.73;99496.28;5076452;28;20063;-78
2022/04/01 09:26:31;;;;;;;4.68;3.25;;;;;;;5.31;52.37;99542.59;5075897;28;20148;-78
2022/04/01 09:29:00;;;;;;;4.30;3.10;;;;;;;5.38;51.95;99543.59;5076059;28;20102;-79
2022/04/01 09:31:34;;;;;;;4.13;2.90;;;;;;;5.37;51.70;99502.97;5075620;28;20048;-81
2022/04/01 09:34:11;;;;;;;7.72;3.97;;;;;;;5.75;51.66;99529.56;5076053;28;20135;-80
2022/04/01 09:36:41;;;;;;;5.43;3.20;;;;;;;5.83;51.52;99495.13;5076319;28;20052;-79
2022/04/01 09:39:15;;;;;;;6.22;3.30;;;;;;;6.33;50.62;99542.66;5076006;28;20056;-78
2022/04/01 09:41:44;;;;;;;5.88;4.00;;;;;;;6.24;50.46;99532.16;5058234;28;20080;-80
2022/04/01 09:44:35;;;;;;;5.40;3.63;;;;;;;6.11;49.91;99536.25;5075957;28;20106;-78
2022/04/01 09:47:04;;;;;;;6.68;3.08;;;;;;;5.77;50.37;99550.34;5075888;28;20147;-79
2022/04/01 09:49:42;;;;;;;5.27;3.50;;;;;;;5.43;50.51;99512.59;5075913;28;20484;-78
2022/04/01 09:52:12;;;;;;;4.28;3.00;;;;;;;5.43;50.37;99513.44;5058118;28;20079;-78
2022/04/01 09:54:47;;;;;;;4.13;3.05;;;;;;;4.88;50.16;99439.91;5080550;28;20048;-78
2022/04/01 09:57:22;;;;;;;4.70;3.30;;;;;;;5.49;50.29;99521.34;5077653;28;20120;-78
2022/04/01 09:59:51;;;;;;;4.25;2.95;;;;;;;5.45;49.61;99529.03;5073090;28;20059;-78
2022/04/01 10:02:21;;;;;;;4.50;3.10;;;;;;;5.23;50.11;99501.84;5076138;28;20052;-80
2022/04/01 10:04:49;;;;;;;;;;;;;;;5.09;50.47;99506.75;5076309;28;20059;-79
2022/04/01 10:07:18;;;;;;;7.10;3.95;;;;;;;5.44;50.68;99517.81;5074996;28;19924;-79
2022/04/01 10:09:47;;;;;;;5.13;3.13;;;;;;;5.62;49.48;99506.03;5057630;28;20075;-78
2022/04/01 10:12:32;;;;;;;5.60;3.03;;;;;;;5.70;49.50;99502.72;5075367;28;20048;-80
2022/04/01 10:15:00;;;;;;;5.30;2.85;;;;;;;5.83;49.08;99514.16;5075779;28;20106;-79
2022/04/01 10:17:49;;;;;;;5.40;3.10;;;;;;;5.91;48.92;99506.50;5076170;28;20086;-79
2022/04/01 10:20:18;;;;;;;4.73;2.90;;;;;;;5.94;48.38;99517.84;5075316;28;20053;-78
2022/04/01 10:22:46;;;;;;;4.95;3.13;;;;;;;5.85;48.32;99465.81;5075181;28;20048;-78
2022/04/01 10:25:18;;;;;;;5.60;3.08;;;;;;;6.00;48.09;99485.97;5074661;28;20498;-78
2022/04/01 10:27:53;;;;;;;4.40;2.97;;;;;;;5.92;48.06;99472.81;5075283;28;20055;-78
2022/04/01 10:30:24;;;;;;;5.95;3.58;;;;;;;6.08;47.68;99493.84;5056892;28;20514;-79
2022/04/01 10:32:54;;;;;;;4.72;3.20;;;;;;;6.15;47.52;99483.59;5074704;28;20494;-79
2022/04/01 10:35:26;;;;;;;3.83;3.10;;;;;;;6.05;47.68;99489.50;5078852;28;20056;-80
2022/04/01 10:38:06;;;;;;;4.53;3.20;;;;;;;6.01;47.52;99484.22;5076400;28;20052;-80
2022/04/01 10:40:39;;;;;;;5.25;3.03;;;;;;;6.04;47.24;99492.03;5075930;28;20057;-77
2022/04/01 10:43:14;;;;;;;5.30;3.35;;;;;;;6.08;46.88;99450.63;5075143;28;20148;-79
2022/04/01 10:46:04;;;;;;;4.53;3.10;;;;;;;6.12;47.18;99436.00;5075330;28;20060;-79
2022/04/01 10:51:37;;;;;;;5.20;2.97;;;;;;;6.44;46.61;99461.50;5074602;28;20189;-79
2022/04/01 10:54:12;;;;;;;4.85;3.00;;;;;;;6.35;46.61;99457.94;5074677;28;20144;-79
2022/04/01 10:56:55;;;;;;;5.03;3.70;;;;;;;6.26;46.95;99444.84;5065547;28;20088;-80
2022/04/01 10:59:26;;;;;;;3.95;2.70;;;;;;;6.31;46.32;99465.66;5033052;28;20072;-80
2022/04/01 11:01:56;;;;;;;5.22;3.08;;;;;;;6.10;46.73;99463.63;5032753;28;20049;-79
2022/04/01 11:04:25;;;;;;;4.00;3.20;;;;;;;6.00;46.20;99452.25;5074078;28;20051;-79
2022/04/01 11:07:01;;;;;;;3.85;3.08;;;;;;;5.94;46.48;99447.84;5074453;28;20059;-78
2022/04/01 11:09:58;;;;;;;4.63;3.25;;;;;;;5.77;46.51;99438.91;5074818;28;20076;-79
2022/04/01 11:12:38;;;;;;;5.50;3.20;;;;;;;5.79;46.13;99446.69;5058017;28;20499;-80
2022/04/01 11:15:07;;;;;;;5.68;3.03;;;;;;;5.80;46.36;99441.53;5052305;28;20152;-79
2022/04/01 11:17:51;;;;;;;8.13;3.30;;;;;;;5.74;46.24;99444.00;5046031;28;20065;-79
2022/04/01 11:20:21;;;;;;;8.65;3.65;;;;;;;5.81;46.64;99440.69;5042292;28;20507;-78
2022/04/01 11:23:06;;;;;;;5.93;3.35;;;;;;;5.55;46.17;99388.44;5044829;28;20041;-78
2022/04/01 11:25:33;;;;;;;;;;;;;;;5.52;46.39;99432.44;5017703;28;20140;-78
2022/04/01 11:28:08;;;;;;;5.72;2.90;;;;;;;5.46;46.59;99396.94;5023559;28;20450;-79
2022/04/01 11:31:02;;;;;;;4.25;3.20;;;;;;;5.46;46.59;99383.09;5038994;28;20084;-80
2022/04/01 11:33:29;;;;;;;5.55;2.97;;;;;;;5.03;46.13;99300.38;5028485;28;20516;-79
2022/04/01 11:35:57;;;;;;;4.43;2.90;;;;;;;5.59;45.98;99426.50;5023079;28;20683;-77
2022/04/01 11:38:27;;;;;;;7.80;3.90;;;;;;;5.57;46.53;99437.69;5023371;28;20050;-78
2022/04/01 11:40:58;;;;;;;5.13;2.80;;;;;;;5.52;46.03;99409.97;5026038;28;20583;-78
2022/04/01 11:43:34;;;;;;;4.37;3.00;;;;;;;5.48;46.11;99374.50;5025544;28;20303;-81
2022/04/01 11:46:06;;;;;;;5.57;3.33;;;;;;;5.75;46.07;99417.25;5022511;28;20310;-80
2022/04/01 11:48:35;;;;;;;4.75;2.75;;;;;;;5.67;46.14;99401.56;5023323;28;20557;-78
2022/04/01 11:51:23;;;;;;;8.40;3.03;;;;;;;5.20;46.29;99336.06;5014693;28;20053;-80
2022/04/01 11:53:53;;;;;;;4.43;3.00;;;;;;;5.80;45.81;99383.63;5015321;28;20108;-77
2022/04/01 11:56:23;;;;;;;5.10;2.70;;;;;;;5.53;46.17;99349.56;5016258;28;20168;-79
2022/04/01 11:59:00;;;;;;;4.60;3.38;;;;;;;5.54;46.03;99350.41;5006098;28;20045;-79
2022/04/01 12:01:31;;;;;;;3.63;2.33;;;;;;;5.60;45.57;99370.38;5023333;28;20496;-78
2022/04/01 12:04:16;;;;;;;4.78;3.00;;;;;;;5.54;46.31;99384.09;5027278;28;20046;-78
2022/04/01 12:09:34;;;;;;;5.75;3.00;;;;;;;5.80;45.46;99363.75;5018444;28;20056;-79
2022/04/01 12:12:04;;;;;;;3.67;2.72;;;;;;;5.75;45.78;99363.69;5033890;28;20514;-80
2022/04/01 12:14:33;;;;;;;;;;;;;;;5.68;46.32;99361.00;5020568;28;20049;-78
2022/04/01 12:17:07;;;;;;;5.47;2.75;;;;;;;5.53;45.44;99339.19;5008078;28;19929;-79